Terminal Aerodrome Forecast
Issued by NWS St Louis, MO

Home | Current Version | Previous Version | Text Only | Print | Product List | Glossary On
Versions: 1 2 3 4 5 6 7 8 9 10 11 12 13 14 15 16 17 18 19 20 21
000
FTUS43 KLSX 022055 AAA
TAFSTL
TAF AMD
KSTL 022055Z 0221/0324 23009KT P6SM SCT050 SCT150
     FM030800 26006KT P6SM SCT150
     FM031800 34005KT P6SM VCSH SCT040 SCT250=

USA.gov is the U.S. government's official web portal to all federal, state and local government web resources and services.